Time;durP1;ratioP1;P1;durP2;ratioP2;P2;SDS_P1;SDS_P2;PMS_P1;PMS_P2;Temp;Humidity;BMP_temperature;BMP_pressure;BME280_temperature;BME280_humidity;BME280_pressure;Samples;Min_cycle;Max_cycle;Signal;HPM_P1;HPM_P2
2023/01/23 00:04:37;;;;;;;0.88;0.40;;;;;;;1.33;nan;103413.81;9870855;29;20067;-84
2023/01/23 00:09:39;;;;;;;1.00;0.40;;;;;;;1.29;nan;103415.22;9843945;29;20379;-84
2023/01/23 00:14:40;;;;;;;0.50;0.40;;;;;;;1.24;nan;103419.91;9838120;29;20685;-84
2023/01/23 00:19:42;;;;;;;0.30;0.30;;;;;;;1.28;nan;103425.41;9850159;29;20052;-84
2023/01/23 00:24:43;;;;;;;1.55;0.88;;;;;;;1.24;nan;103416.41;9836494;29;20063;-84
2023/01/23 00:29:46;;;;;;;0.45;0.45;;;;;;;1.21;nan;103409.28;9855113;29;20053;-85
2023/01/23 00:34:48;;;;;;;0.45;0.20;;;;;;;1.20;nan;103420.38;9857034;29;20054;-85
2023/01/23 00:39:50;;;;;;;0.20;0.20;;;;;;;1.20;nan;103422.97;9846780;29;20354;-85
2023/01/23 00:44:51;;;;;;;0.20;0.20;;;;;;;1.17;nan;103417.50;9870847;29;20056;-84
2023/01/23 00:49:54;;;;;;;0.57;0.45;;;;;;;1.16;nan;103432.84;9842537;30;20075;-84
2023/01/23 00:54:55;;;;;;;0.10;0.10;;;;;;;1.14;nan;103435.28;9843179;29;20048;-84
2023/01/23 00:59:57;;;;;;;0.40;0.22;;;;;;;1.18;nan;103439.97;9862116;29;20086;-84
2023/01/23 01:04:59;;;;;;;0.10;0.10;;;;;;;1.20;nan;103440.09;9856183;29;20087;-84
2023/01/23 01:10:02;;;;;;;0.70;0.52;;;;;;;1.18;nan;103429.63;9850066;29;20532;-84
2023/01/23 01:15:05;;;;;;;0.15;0.15;;;;;;;1.10;nan;103440.00;9848577;29;20059;-85
2023/01/23 01:20:09;;;;;;;0.25;0.25;;;;;;;1.04;nan;103435.13;9853299;29;20062;-84
2023/01/23 01:25:11;;;;;;;0.13;0.13;;;;;;;1.03;nan;103439.38;9842492;30;20075;-84
2023/01/23 01:30:14;;;;;;;2.47;0.98;;;;;;;1.02;nan;103441.78;9851997;30;20513;-84
2023/01/23 01:35:15;;;;;;;0.20;0.20;;;;;;;0.99;nan;103445.00;9862877;29;23229;-84
2023/01/23 01:40:23;;;;;;;0.13;0.10;;;;;;;0.97;nan;103443.03;9854301;30;20063;-84
2023/01/23 01:46:02;;;;;;;0.90;0.65;;;;;;;0.93;nan;103449.56;9848590;30;20429;-83
2023/01/23 01:51:16;;;;;;;0.43;0.43;;;;;;;0.90;nan;103445.75;9857454;30;20059;-83
2023/01/23 01:56:18;;;;;;;0.20;0.20;;;;;;;0.90;nan;103440.59;9861439;30;20517;-84
2023/01/23 02:01:20;;;;;;;0.63;0.20;;;;;;;0.85;nan;103446.19;9864524;29;20055;-83
2023/01/23 02:06:23;;;;;;;0.13;0.13;;;;;;;0.90;nan;103456.06;9841834;30;20605;-84
2023/01/23 02:11:25;;;;;;;0.98;0.85;;;;;;;0.93;nan;103471.84;9857764;29;20101;-84
2023/01/23 02:16:30;;;;;;;0.20;0.20;;;;;;;0.99;nan;103467.28;9839243;30;20063;-84
2023/01/23 02:21:34;;;;;;;0.43;0.30;;;;;;;0.98;nan;103465.50;9855681;30;20062;-84
2023/01/23 02:26:42;;;;;;;0.20;0.20;;;;;;;0.95;nan;103466.09;9861431;30;20066;-84
2023/01/23 02:31:45;;;;;;;0.25;0.25;;;;;;;0.93;nan;103466.69;9870235;29;20059;-84
2023/01/23 02:36:49;;;;;;;0.80;0.35;;;;;;;0.88;nan;103464.56;9854831;30;20079;-84
2023/01/23 02:41:53;;;;;;;0.38;0.38;;;;;;;0.92;nan;103470.94;9855211;30;20086;-84
2023/01/23 02:47:02;;;;;;;1.27;0.50;;;;;;;0.91;nan;103470.81;9861783;30;20538;-85
2023/01/23 02:52:05;;;;;;;0.95;0.73;;;;;;;0.88;nan;103468.81;9855322;30;20343;-83
2023/01/23 02:57:09;;;;;;;0.52;0.52;;;;;;;0.84;nan;103483.09;9860360;30;20062;-84
2023/01/23 03:02:13;;;;;;;3.30;0.93;;;;;;;0.87;nan;103487.63;9869562;29;20055;-85
2023/01/23 03:07:15;;;;;;;5.95;0.93;;;;;;;0.91;nan;103483.69;9847141;29;20056;-84
2023/01/23 03:12:17;;;;;;;0.10;0.10;;;;;;;0.88;nan;103484.28;9874159;29;20056;-84
2023/01/23 03:17:19;;;;;;;0.22;0.22;;;;;;;0.90;nan;103481.88;9861550;29;20064;-84
2023/01/23 03:22:20;;;;;;;0.43;0.43;;;;;;;0.90;nan;103471.56;9847405;29;20067;-85
2023/01/23 03:27:23;;;;;;;0.40;0.40;;;;;;;0.92;nan;103477.78;9849942;29;20055;-84
2023/01/23 03:32:29;;;;;;;0.70;0.60;;;;;;;0.90;nan;103472.44;9855772;29;20129;-84
2023/01/23 03:37:31;;;;;;;0.52;0.52;;;;;;;0.87;nan;103478.25;9842561;29;20055;-84
2023/01/23 03:42:35;;;;;;;0.40;0.40;;;;;;;0.93;nan;103493.44;9846073;29;20054;-84
2023/01/23 03:47:38;;;;;;;0.45;0.43;;;;;;;0.90;nan;103492.19;9843363;29;20040;-84
2023/01/23 03:52:41;;;;;;;0.38;0.35;;;;;;;0.88;nan;103495.50;9835175;29;20063;-84
2023/01/23 03:57:44;;;;;;;0.20;0.20;;;;;;;0.91;nan;103488.88;9870113;29;20553;-85
2023/01/23 04:02:51;;;;;;;0.22;0.22;;;;;;;0.88;nan;103503.25;9858186;29;20136;-84
2023/01/23 04:07:54;;;;;;;0.47;0.40;;;;;;;0.90;nan;103497.34;9857306;29;20056;-84
2023/01/23 04:12:56;;;;;;;1.10;0.77;;;;;;;0.89;nan;103499.03;9850343;29;20048;-84
2023/01/23 04:17:59;;;;;;;0.93;0.57;;;;;;;0.85;nan;103505.53;9857002;29;20059;-84
2023/01/23 04:23:02;;;;;;;0.45;0.45;;;;;;;0.83;nan;103514.81;9848535;29;20417;-85
2023/01/23 04:28:04;;;;;;;0.35;0.35;;;;;;;0.85;nan;103514.94;9870552;29;20059;-84
2023/01/23 04:33:07;;;;;;;1.38;0.65;;;;;;;0.86;nan;103511.63;9849143;29;20120;-84
2023/01/23 04:38:09;;;;;;;0.28;0.28;;;;;;;0.84;nan;103518.28;9852217;29;20048;-84
2023/01/23 04:43:12;;;;;;;0.70;0.55;;;;;;;0.79;nan;103522.06;9892353;24;20062;-85
2023/01/23 04:48:19;;;;;;;0.10;0.10;;;;;;;0.80;nan;103521.34;9900558;29;20426;-84
2023/01/23 04:53:21;;;;;;;0.22;0.22;;;;;;;0.79;nan;103525.56;9854046;29;20110;-83
2023/01/23 04:58:30;;;;;;;0.40;0.40;;;;;;;0.78;nan;103523.75;9843199;29;20091;-84
2023/01/23 05:03:36;;;;;;;0.47;0.40;;;;;;;0.80;nan;103527.38;9858306;29;20075;-85
2023/01/23 05:08:38;;;;;;;1.08;0.90;;;;;;;0.82;nan;103530.13;9840409;29;20281;-84
2023/01/23 05:13:48;;;;;;;0.43;0.43;;;;;;;0.79;nan;103538.47;9860780;29;20056;-85
2023/01/23 05:18:50;;;;;;;0.10;0.10;;;;;;;0.80;nan;103539.38;9842788;29;20044;-85
2023/01/23 05:23:52;;;;;;;0.10;0.10;;;;;;;0.79;nan;103541.03;9840973;29;20052;-85
2023/01/23 05:28:55;;;;;;;0.40;0.40;;;;;;;0.82;nan;103536.19;9832990;30;20086;-84
2023/01/23 05:33:58;;;;;;;0.35;0.35;;;;;;;0.81;nan;103552.44;9840265;29;20143;-84
2023/01/23 05:39:00;;;;;;;0.28;0.28;;;;;;;0.82;nan;103559.41;9844970;30;20055;-84
2023/01/23 05:44:03;;;;;;;1.48;0.55;;;;;;;0.83;nan;103565.50;9854892;29;20129;-85
2023/01/23 05:49:17;;;;;;;0.65;0.65;;;;;;;0.84;nan;103570.81;9840667;30;20193;-84
2023/01/23 05:54:19;;;;;;;0.85;0.85;;;;;;;0.85;nan;103582.94;9853154;29;20056;-84
2023/01/23 05:59:21;;;;;;;0.40;0.40;;;;;;;0.85;nan;103593.25;9858052;29;20458;-84
2023/01/23 06:04:34;;;;;;;0.90;0.52;;;;;;;0.82;nan;103587.78;9847809;29;20099;-84
2023/01/23 06:09:45;;;;;;;2.95;1.30;;;;;;;0.84;nan;103593.09;9841129;30;20089;-85
2023/01/23 06:14:47;;;;;;;0.40;0.40;;;;;;;0.84;nan;103594.03;9839710;30;20054;-84
2023/01/23 06:19:49;;;;;;;0.73;0.57;;;;;;;0.80;nan;103594.47;9852605;29;20048;-85
2023/01/23 06:24:51;;;;;;;1.05;0.75;;;;;;;0.79;nan;103587.47;9840871;29;20133;-84
2023/01/23 06:29:53;;;;;;;0.60;0.55;;;;;;;0.85;nan;103585.50;9833042;29;20051;-86
2023/01/23 06:34:55;;;;;;;0.73;0.52;;;;;;;0.82;nan;103582.63;9849158;29;20056;-86
2023/01/23 06:39:57;;;;;;;0.30;0.30;;;;;;;0.80;nan;103591.88;9858504;29;20071;-85
2023/01/23 06:44:59;;;;;;;0.95;0.70;;;;;;;0.83;nan;103592.19;9835255;29;20476;-83
2023/01/23 06:50:04;;;;;;;1.58;0.93;;;;;;;0.83;nan;103599.03;9834551;30;20063;-84
2023/01/23 06:55:10;;;;;;;0.65;0.50;;;;;;;0.81;nan;103596.28;9841163;30;20514;-84
2023/01/23 07:00:15;;;;;;;0.88;0.73;;;;;;;0.80;nan;103594.47;9833595;29;20152;-84
2023/01/23 07:05:18;;;;;;;0.45;0.45;;;;;;;0.83;nan;103606.78;9833086;30;20055;-84
2023/01/23 07:10:22;;;;;;;0.40;0.35;;;;;;;0.85;nan;103608.72;9845034;30;20103;-84
2023/01/23 07:15:23;;;;;;;0.45;0.45;;;;;;;0.84;nan;103617.25;9860630;29;20661;-84
2023/01/23 07:20:26;;;;;;;1.35;0.70;;;;;;;0.89;nan;103622.88;9845820;30;20060;-84
2023/01/23 07:25:31;;;;;;;0.50;0.50;;;;;;;0.90;nan;103621.19;9857963;29;20075;-86
2023/01/23 07:30:33;;;;;;;0.85;0.70;;;;;;;0.93;nan;103629.25;9851121;30;20066;-85
2023/01/23 07:35:38;;;;;;;1.55;0.90;;;;;;;0.93;nan;103642.13;9854186;30;20142;-84
2023/01/23 07:40:41;;;;;;;0.75;0.65;;;;;;;0.95;nan;103641.56;9863860;29;20052;-85
2023/01/23 07:45:43;;;;;;;1.17;0.88;;;;;;;0.96;nan;103655.34;9842822;30;20056;-84
2023/01/23 07:50:45;;;;;;;1.05;0.95;;;;;;;0.94;nan;103656.88;9842616;30;20118;-85
2023/01/23 07:55:47;;;;;;;0.60;0.60;;;;;;;0.99;nan;103658.25;9863666;29;20420;-84
2023/01/23 08:00:48;;;;;;;0.52;0.47;;;;;;;1.00;nan;103671.31;9851032;30;20069;-84
2023/01/23 08:05:50;;;;;;;0.52;0.40;;;;;;;0.99;nan;103676.31;9844157;30;20063;-84
2023/01/23 08:10:52;;;;;;;0.93;0.82;;;;;;;1.00;nan;103673.88;9853661;30;20078;-83
2023/01/23 08:15:57;;;;;;;2.42;0.68;;;;;;;1.03;nan;103675.88;9840114;30;20060;-84
2023/01/23 08:21:00;;;;;;;1.35;0.90;;;;;;;1.06;nan;103676.19;9855474;29;20294;-82
2023/01/23 08:26:04;;;;;;;0.43;0.43;;;;;;;1.04;nan;103680.28;9839722;30;20138;-83
2023/01/23 08:31:09;;;;;;;0.98;0.52;;;;;;;1.03;nan;103681.94;9854995;30;20052;-83
2023/01/23 08:36:12;;;;;;;2.28;1.55;;;;;;;1.02;nan;103693.03;9852632;30;20083;-84
2023/01/23 08:41:14;;;;;;;2.33;0.90;;;;;;;1.06;nan;103700.31;9858705;29;20050;-83
2023/01/23 08:46:15;;;;;;;0.68;0.60;;;;;;;1.02;nan;103694.69;9845696;30;20151;-83
2023/01/23 08:51:17;;;;;;;3.15;1.58;;;;;;;1.03;nan;103696.50;9853011;29;20048;-83
2023/01/23 08:56:21;;;;;;;1.38;1.23;;;;;;;1.08;nan;103695.31;9858394;30;20533;-84
2023/01/23 09:01:25;;;;;;;1.30;1.05;;;;;;;1.12;nan;103697.44;9830577;30;20326;-83
2023/01/23 09:06:27;;;;;;;1.50;1.23;;;;;;;1.07;nan;103693.50;9837372;30;20060;-82
2023/01/23 09:11:29;;;;;;;1.08;0.68;;;;;;;1.12;nan;103691.38;9848339;30;20059;-83
2023/01/23 09:16:31;;;;;;;1.02;0.82;;;;;;;1.20;nan;103694.00;9841092;30;20052;-85
2023/01/23 09:21:33;;;;;;;1.35;0.80;;;;;;;1.27;nan;103700.69;9827319;30;20055;-83
2023/01/23 09:26:35;;;;;;;2.67;1.35;;;;;;;1.28;nan;103701.63;9844999;30;20125;-83
2023/01/23 09:31:36;;;;;;;1.60;1.30;;;;;;;1.28;nan;103714.53;9853815;29;20056;-83
2023/01/23 09:36:38;;;;;;;0.82;0.80;;;;;;;1.26;nan;103726.34;9837073;30;20127;-83
2023/01/23 09:41:45;;;;;;;1.15;0.80;;;;;;;1.21;nan;103718.13;9830169;29;20078;-85
2023/01/23 09:47:03;;;;;;;1.58;1.02;;;;;;;1.27;nan;103712.69;9840912;30;20055;-83
2023/01/23 09:52:12;;;;;;;1.23;1.00;;;;;;;1.27;nan;103702.38;9850624;30;20269;-83
2023/01/23 09:57:24;;;;;;;1.67;0.98;;;;;;;1.29;nan;103701.78;9835610;30;20150;-83
2023/01/23 10:02:27;;;;;;;1.40;1.08;;;;;;;1.39;nan;103701.03;9862086;29;20421;-83
2023/01/23 10:07:38;;;;;;;3.97;1.42;;;;;;;1.51;nan;103706.50;9842815;29;20048;-84
2023/01/23 10:12:51;;;;;;;1.55;1.20;;;;;;;1.56;nan;103708.81;9866357;29;20361;-83
2023/01/23 10:18:22;;;;;;;1.48;0.98;;;;;;;1.54;nan;103712.88;9836005;29;20072;-83
2023/01/23 10:23:42;;;;;;;2.10;1.23;;;;;;;1.65;nan;103720.81;9832287;29;20048;-84
2023/01/23 10:28:45;;;;;;;2.03;1.55;;;;;;;1.63;nan;103724.91;9849064;29;20056;-83
2023/01/23 10:34:16;;;;;;;1.10;0.90;;;;;;;1.67;nan;103716.72;9851303;29;20047;-84
2023/01/23 10:39:53;;;;;;;2.70;1.75;;;;;;;1.71;nan;103708.50;9861993;29;20043;-80
2023/01/23 10:44:55;;;;;;;1.20;1.10;;;;;;;1.71;nan;103701.69;9856542;29;20044;-81
2023/01/23 10:49:58;;;;;;;3.00;1.55;;;;;;;1.73;nan;103712.16;9853993;29;20040;-81
2023/01/23 10:55:03;;;;;;;1.88;0.90;;;;;;;1.74;nan;103701.06;9855791;29;20075;-81
2023/01/23 11:00:34;;;;;;;3.50;2.25;;;;;;;1.80;nan;103703.34;9842914;30;20414;-83
2023/01/23 11:05:42;;;;;;;2.10;1.30;;;;;;;1.88;nan;103708.53;9858690;30;20075;-81
2023/01/23 11:11:17;;;;;;;0.65;0.52;;;;;;;1.91;nan;103713.09;9857159;30;20488;-81
2023/01/23 11:16:22;;;;;;;1.77;1.20;;;;;;;1.93;nan;103712.47;9863215;30;20600;-81
2023/01/23 11:21:31;;;;;;;1.88;1.48;;;;;;;1.94;nan;103706.53;9857539;29;20537;-83
2023/01/23 11:26:35;;;;;;;3.58;2.58;;;;;;;2.09;nan;103712.31;9864337;29;20417;-83
2023/01/23 11:52:56;;;;;;;1.20;0.77;;;;;;;2.25;nan;103729.31;10360559;24;20061;-82
2023/01/23 11:58:53;;;;;;;0.85;0.70;;;;;;;2.27;nan;103715.78;9926380;29;20533;-82
2023/01/23 12:04:28;;;;;;;2.00;1.10;;;;;;;2.29;nan;103714.25;9888209;29;20190;-82
2023/01/23 12:09:58;;;;;;;1.02;0.93;;;;;;;2.36;nan;103694.16;9886401;29;20078;-80
2023/01/23 12:15:31;;;;;;;2.08;1.35;;;;;;;2.45;nan;103702.84;9887863;29;20051;-78
2023/01/23 12:20:44;;;;;;;3.78;1.98;;;;;;;2.58;nan;103704.91;9892098;29;20075;-79
2023/01/23 12:26:00;;;;;;;2.90;1.65;;;;;;;2.59;nan;103705.06;9893679;29;20070;-78
2023/01/23 12:31:08;;;;;;;1.80;1.23;;;;;;;2.60;nan;103696.56;9883181;29;20479;-80
2023/01/23 12:36:34;;;;;;;1.02;0.90;;;;;;;2.67;nan;103707.47;9892754;29;20051;-80
2023/01/23 12:42:02;;;;;;;1.65;1.45;;;;;;;2.67;nan;103707.47;9891703;29;20147;-80
2023/01/23 12:47:13;;;;;;;4.68;2.53;;;;;;;2.71;nan;103704.44;9895165;29;20123;-84
2023/01/23 12:52:19;;;;;;;4.82;1.67;;;;;;;2.68;nan;103710.22;9894094;29;20058;-83
2023/01/23 12:57:39;;;;;;;4.32;2.40;;;;;;;2.58;nan;103708.44;9891893;29;20086;-84
2023/01/23 13:03:28;;;;;;;1.50;1.30;;;;;;;2.63;nan;103709.78;9892074;29;20061;-85
2023/01/23 13:09:01;;;;;;;2.88;1.55;;;;;;;2.70;nan;103710.38;9887841;29;20066;-85
2023/01/23 13:14:29;;;;;;;5.20;2.28;;;;;;;2.68;nan;103724.84;9888327;29;20047;-84
2023/01/23 13:25:13;;;;;;;1.95;1.48;;;;;;;2.61;nan;103738.84;9886225;29;20047;-85
2023/01/23 13:30:42;;;;;;;3.35;2.13;;;;;;;2.64;nan;103731.38;9891086;29;20054;-84
2023/01/23 13:35:46;;;;;;;1.63;1.15;;;;;;;2.64;nan;103734.91;9885679;29;20144;-84
2023/01/23 13:41:13;;;;;;;2.97;1.58;;;;;;;2.68;nan;103724.84;9905729;29;20711;-85
2023/01/23 13:46:45;;;;;;;4.40;2.65;;;;;;;2.67;nan;103735.94;9891476;29;20413;-84
2023/01/23 13:56:37;;;;;;;2.33;1.75;;;;;;;2.50;nan;103732.63;9807720;30;20142;-84
2023/01/23 13:57:42;;;;;;;7.10;1.58;;;;;;;2.37;nan;103742.53;9702858;30;20053;-84
2023/01/23 14:08:53;;;;;;;2.80;1.75;;;;;;;2.44;nan;103742.38;9479001;31;20068;-86
2023/01/23 14:19:54;;;;;;;3.80;1.60;;;;;;;2.46;nan;103727.91;9529651;31;20154;-83
2023/01/23 14:25:17;;;;;;;3.10;1.33;;;;;;;2.48;nan;103726.41;9487868;30;20651;-84
2023/01/23 14:30:27;;;;;;;1.67;1.17;;;;;;;2.45;nan;103724.44;9612993;30;20058;-82
2023/01/23 14:35:29;;;;;;;2.07;1.03;;;;;;;2.41;nan;103714.53;9641251;30;20121;-81
2023/01/23 14:40:32;;;;;;;1.25;1.00;;;;;;;2.33;nan;103709.38;9625713;30;20106;-81
2023/01/23 14:46:18;;;;;;;3.80;1.63;;;;;;;2.36;nan;103691.56;9740191;30;20064;-81
2023/01/23 14:51:26;;;;;;;2.10;1.38;;;;;;;2.36;nan;103688.97;9894712;29;20077;-81
2023/01/23 14:56:31;;;;;;;4.95;2.33;;;;;;;2.36;nan;103678.63;9881294;29;20056;-80
2023/01/23 15:01:33;;;;;;;2.55;1.30;;;;;;;2.36;nan;103686.41;9898585;29;20071;-79
2023/01/23 15:06:36;;;;;;;2.78;1.85;;;;;;;2.32;nan;103684.31;9896382;29;20059;-80
2023/01/23 15:11:38;;;;;;;2.88;1.60;;;;;;;2.26;nan;103672.59;9903027;29;20566;-80
2023/01/23 15:16:40;;;;;;;2.00;1.30;;;;;;;2.23;nan;103667.13;9899653;29;20142;-82
2023/01/23 15:21:42;;;;;;;1.65;1.00;;;;;;;2.27;nan;103671.84;9892808;29;20059;-81
2023/01/23 15:26:54;;;;;;;2.38;1.10;;;;;;;2.32;nan;103692.06;9899962;29;20070;-83
2023/01/23 15:31:58;;;;;;;2.55;1.35;;;;;;;2.23;nan;103682.63;9897970;29;20054;-83
2023/01/23 15:37:20;;;;;;;2.92;1.35;;;;;;;2.19;nan;103684.78;9903006;29;20494;-82
2023/01/23 15:42:33;;;;;;;4.20;1.88;;;;;;;2.15;nan;103688.75;9903398;29;20055;-81
2023/01/23 15:47:40;;;;;;;2.80;1.13;;;;;;;2.08;nan;103699.25;9903130;29;20550;-84
2023/01/23 15:52:50;;;;;;;4.40;2.58;;;;;;;2.05;nan;103711.88;9896743;29;20261;-83
2023/01/23 15:57:53;;;;;;;3.90;1.95;;;;;;;2.04;nan;103695.44;9905840;29;20055;-84
2023/01/23 16:02:57;;;;;;;2.92;1.30;;;;;;;2.02;nan;103699.53;9902572;29;20058;-83
2023/01/23 16:08:02;;;;;;;5.50;2.25;;;;;;;1.97;nan;103717.94;9900905;29;20059;-83
2023/01/23 16:13:03;;;;;;;2.47;1.75;;;;;;;1.92;nan;103710.66;9906549;29;20043;-82
2023/01/23 16:18:05;;;;;;;2.33;1.63;;;;;;;1.91;nan;103708.81;9902552;29;20447;-82
2023/01/23 16:23:25;;;;;;;3.10;1.48;;;;;;;1.89;nan;103712.00;9913305;29;20542;-83
2023/01/23 16:28:40;;;;;;;2.63;1.63;;;;;;;1.90;nan;103716.44;9901867;29;20060;-84
2023/01/23 16:33:43;;;;;;;3.50;2.42;;;;;;;1.93;nan;103712.47;9900980;29;20452;-85
2023/01/23 16:38:55;;;;;;;3.75;1.83;;;;;;;1.97;nan;103723.09;9898863;29;20066;-83
2023/01/23 16:43:56;;;;;;;4.38;2.05;;;;;;;1.89;nan;103718.09;9899426;29;20067;-85
2023/01/23 16:48:59;;;;;;;2.72;2.40;;;;;;;1.89;nan;103733.63;9902031;29;20771;-83
2023/01/23 16:54:01;;;;;;;2.80;1.95;;;;;;;1.91;nan;103747.59;9903281;29;20055;-84
2023/01/23 16:59:32;;;;;;;2.63;2.17;;;;;;;1.90;nan;103750.03;9901496;29;20051;-84
2023/01/23 17:04:33;;;;;;;2.67;1.35;;;;;;;1.84;nan;103741.66;9903229;29;20058;-82
2023/01/23 17:09:35;;;;;;;3.53;2.08;;;;;;;1.86;nan;103748.81;9902322;29;20792;-83
2023/01/23 17:14:40;;;;;;;2.15;1.42;;;;;;;1.82;nan;103743.16;9906511;29;20051;-83
2023/01/23 17:19:43;;;;;;;1.73;1.30;;;;;;;1.79;nan;103748.94;9865861;29;20051;-83
2023/01/23 17:24:44;;;;;;;3.20;1.75;;;;;;;1.76;nan;103753.81;9879574;29;20055;-84
2023/01/23 17:29:47;;;;;;;3.38;1.95;;;;;;;1.76;nan;103759.88;9879118;29;20646;-83
2023/01/23 17:34:48;;;;;;;2.72;1.63;;;;;;;1.76;nan;103764.16;9899134;29;20582;-82
2023/01/23 17:39:51;;;;;;;3.83;2.08;;;;;;;1.72;nan;103772.34;9906832;29;20078;-83
2023/01/23 17:44:52;;;;;;;3.30;2.20;;;;;;;1.72;nan;103756.84;9900974;29;20108;-84
2023/01/23 17:49:55;;;;;;;5.82;2.70;;;;;;;1.68;nan;103770.19;9903822;29;20213;-83
2023/01/23 17:54:56;;;;;;;2.65;1.30;;;;;;;1.70;nan;103767.03;9902731;29;20078;-84
2023/01/23 17:59:58;;;;;;;4.20;1.67;;;;;;;1.65;nan;103775.06;9898005;29;20043;-83
2023/01/23 18:05:00;;;;;;;5.15;2.08;;;;;;;1.65;nan;103775.06;9894133;29;20051;-83
2023/01/23 18:10:06;;;;;;;2.28;1.60;;;;;;;1.68;nan;103771.13;9901123;29;20055;-85
2023/01/23 18:15:08;;;;;;;6.25;2.78;;;;;;;1.69;nan;103772.03;9898616;29;20517;-84
2023/01/23 18:20:17;;;;;;;1.77;1.17;;;;;;;1.68;nan;103780.53;9900957;29;20533;-83
2023/01/23 18:25:20;;;;;;;19.80;2.00;;;;;;;1.71;nan;103780.84;9904616;29;20052;-84
2023/01/23 18:30:46;;;;;;;2.33;1.60;;;;;;;1.71;nan;103784.34;9900849;29;20055;-83
2023/01/23 18:36:03;;;;;;;4.25;1.85;;;;;;;1.70;nan;103782.53;9886001;29;20101;-82
2023/01/23 18:41:22;;;;;;;3.45;1.75;;;;;;;1.69;nan;103797.88;9883459;29;20054;-82
2023/01/23 18:46:24;;;;;;;4.85;2.97;;;;;;;1.67;nan;103796.81;9893377;29;20052;-83
2023/01/23 18:51:41;;;;;;;2.90;1.65;;;;;;;1.64;nan;103802.56;9889085;29;20062;-82
2023/01/23 18:57:06;;;;;;;4.43;1.92;;;;;;;1.61;nan;103806.50;9881512;29;20140;-83
2023/01/23 19:02:19;;;;;;;2.70;2.15;;;;;;;1.62;nan;103808.31;9876781;29;20059;-84
2023/01/23 19:07:21;;;;;;;1.95;1.52;;;;;;;1.58;nan;103804.53;9897244;29;20051;-84
2023/01/23 19:12:33;;;;;;;4.20;2.53;;;;;;;1.54;nan;103808.44;9911426;29;20101;-85
2023/01/23 19:17:45;;;;;;;2.53;1.80;;;;;;;1.55;nan;103810.28;9893006;29;20055;-84
2023/01/23 19:22:54;;;;;;;2.03;1.60;;;;;;;1.53;nan;103808.28;9894545;29;20117;-84
2023/01/23 19:27:56;;;;;;;2.75;1.95;;;;;;;1.54;nan;103813.63;9901695;29;20105;-83
2023/01/23 19:32:58;;;;;;;3.70;2.30;;;;;;;1.57;nan;103797.53;9908298;29;20055;-84
2023/01/23 19:38:00;;;;;;;1.88;1.45;;;;;;;1.58;nan;103807.13;9906227;29;20063;-83
2023/01/23 19:43:02;;;;;;;2.80;2.20;;;;;;;1.62;nan;103810.91;9918984;29;20062;-83
2023/01/23 19:48:15;;;;;;;2.22;1.58;;;;;;;1.59;nan;103822.78;9905399;29;20051;-84
2023/01/23 19:53:18;;;;;;;3.17;2.22;;;;;;;1.64;nan;103814.59;9905361;29;20055;-83
2023/01/23 19:58:19;;;;;;;5.28;2.33;;;;;;;1.62;nan;103811.81;9902978;29;20181;-84
2023/01/23 20:03:21;;;;;;;3.25;1.40;;;;;;;1.57;nan;103813.94;9902650;29;20047;-84
2023/01/23 20:08:22;;;;;;;2.88;1.70;;;;;;;1.56;nan;103812.13;9904201;29;20066;-83
2023/01/23 20:13:24;;;;;;;3.65;2.30;;;;;;;1.56;nan;103813.78;9905711;29;20555;-85
2023/01/23 20:18:26;;;;;;;3.80;1.95;;;;;;;1.58;nan;103814.88;9907807;29;20088;-83
2023/01/23 20:23:28;;;;;;;4.47;2.65;;;;;;;1.57;nan;103820.78;9908586;29;20542;-84
2023/01/23 20:28:29;;;;;;;7.00;2.67;;;;;;;1.56;nan;103816.34;9914875;29;20058;-84
2023/01/23 20:33:31;;;;;;;3.17;2.03;;;;;;;1.57;nan;103823.34;9907911;29;20055;-82
2023/01/23 20:38:33;;;;;;;3.33;2.25;;;;;;;1.57;nan;103816.50;9906773;29;20047;-83
2023/01/23 20:43:35;;;;;;;5.10;3.10;;;;;;;1.57;nan;103826.84;9910276;29;20507;-83
2023/01/23 20:48:39;;;;;;;2.67;1.48;;;;;;;1.57;nan;103836.28;9905801;29;20055;-84
2023/01/23 20:53:41;;;;;;;2.75;2.05;;;;;;;1.55;nan;103828.38;9911481;29;20051;-84
2023/01/23 21:04:08;;;;;;;6.72;2.55;;;;;;;1.56;nan;103830.19;9907276;29;20073;-83
2023/01/23 21:09:11;;;;;;;6.38;3.25;;;;;;;1.56;nan;103842.19;9907502;29;20055;-83
2023/01/23 21:14:14;;;;;;;2.85;1.60;;;;;;;1.57;nan;103839.75;9911673;29;20081;-84
2023/01/23 21:19:16;;;;;;;3.83;2.30;;;;;;;1.55;nan;103846.44;9905734;29;20059;-84
2023/01/23 21:24:17;;;;;;;2.50;1.92;;;;;;;1.54;nan;103839.44;9900883;29;20124;-84
2023/01/23 21:29:19;;;;;;;2.67;1.73;;;;;;;1.52;nan;103835.81;9897737;29;20087;-84
2023/01/23 21:34:21;;;;;;;1.75;1.42;;;;;;;1.49;nan;103827.75;9900140;29;20043;-84
2023/01/23 21:39:23;;;;;;;4.88;2.75;;;;;;;1.52;nan;103833.22;9904490;29;20125;-83
2023/01/23 21:44:24;;;;;;;2.78;1.90;;;;;;;1.51;nan;103833.97;9904564;29;20043;-83
2023/01/23 21:49:26;;;;;;;3.42;2.05;;;;;;;1.51;nan;103835.66;9900314;29;20051;-83
2023/01/23 21:54:27;;;;;;;2.67;1.77;;;;;;;1.45;nan;103842.75;9901489;29;20050;-83
2023/01/23 21:59:29;;;;;;;1.85;1.45;;;;;;;1.44;nan;103852.16;9902096;29;20507;-83
2023/01/23 22:04:31;;;;;;;1.55;1.17;;;;;;;1.48;nan;103840.50;9903249;29;20047;-82
2023/01/23 22:09:32;;;;;;;4.93;2.97;;;;;;;1.50;nan;103852.81;9902601;29;20047;-84
2023/01/23 22:14:34;;;;;;;2.70;2.15;;;;;;;1.51;nan;103848.56;9908147;29;20051;-83
2023/01/23 22:19:36;;;;;;;4.05;2.42;;;;;;;1.52;nan;103864.22;9902114;29;20058;-83
2023/01/23 22:24:37;;;;;;;4.38;2.35;;;;;;;1.51;nan;103869.22;9899162;29;20051;-84
2023/01/23 22:29:39;;;;;;;3.58;1.95;;;;;;;1.50;nan;103870.91;9901725;29;20044;-83
2023/01/23 22:34:40;;;;;;;1.15;1.05;;;;;;;1.53;nan;103875.44;9902075;29;20040;-84
2023/01/23 22:39:42;;;;;;;12.13;3.05;;;;;;;1.50;nan;103870.91;9906722;29;20547;-84
2023/01/23 22:44:44;;;;;;;4.40;2.25;;;;;;;1.54;nan;103866.94;9907778;29;20055;-84
2023/01/23 22:49:46;;;;;;;4.43;2.15;;;;;;;1.49;nan;103866.47;9900865;29;20119;-84
2023/01/23 22:54:47;;;;;;;1.50;1.08;;;;;;;1.48;nan;103864.66;9909870;29;20051;-84
2023/01/23 22:59:49;;;;;;;1.77;1.45;;;;;;;1.51;nan;103867.53;9906773;29;20055;-82
2023/01/23 23:04:51;;;;;;;2.28;1.40;;;;;;;1.53;nan;103863.47;9907511;29;20043;-84
2023/01/23 23:09:53;;;;;;;3.33;1.27;;;;;;;1.53;nan;103866.06;9913033;29;20412;-83
2023/01/23 23:14:54;;;;;;;4.45;2.47;;;;;;;1.56;nan;103866.38;9904908;29;20146;-85
2023/01/23 23:19:56;;;;;;;2.15;1.67;;;;;;;1.53;nan;103860.88;9905100;29;20133;-84
2023/01/23 23:24:57;;;;;;;3.10;1.70;;;;;;;1.55;nan;103861.03;9905691;29;20129;-83
2023/01/23 23:29:59;;;;;;;4.47;1.85;;;;;;;1.54;nan;103860.09;9904688;29;20598;-84
2023/01/23 23:35:01;;;;;;;2.67;1.77;;;;;;;1.53;nan;103863.47;9906661;29;20141;-84
2023/01/23 23:40:03;;;;;;;2.85;2.13;;;;;;;1.56;nan;103873.19;9905776;29;20512;-83
2023/01/23 23:45:05;;;;;;;2.22;1.60;;;;;;;1.57;nan;103875.00;9908304;29;20051;-83
2023/01/23 23:50:07;;;;;;;5.90;2.53;;;;;;;1.49;nan;103869.06;9917233;29;20047;-83
2023/01/23 23:55:09;;;;;;;4.50;2.10;;;;;;;1.51;nan;103869.22;9903885;29;20192;-83
